createdAt,value
2023-03-20T00:01:24.277Z,9.00
2023-03-20T00:03:53.095Z,8.90
2023-03-20T00:06:25.436Z,8.90
2023-03-20T00:08:57.593Z,8.90
2023-03-20T00:11:34.936Z,8.90
2023-03-20T00:14:08.987Z,8.90
2023-03-20T00:16:41.042Z,8.90
2023-03-20T00:19:16.705Z,8.90
2023-03-20T00:21:56.721Z,8.90
2023-03-20T00:24:31.147Z,8.80
2023-03-20T00:27:07.609Z,8.80
2023-03-20T00:29:39.068Z,8.80
2023-03-20T00:32:13.353Z,8.80
2023-03-20T00:35:01.111Z,8.80
2023-03-20T00:37:37.299Z,8.80
2023-03-20T00:40:13.715Z,8.90
2023-03-20T00:42:46.509Z,8.80
2023-03-20T00:45:32.875Z,8.80
2023-03-20T00:48:16.167Z,8.80
2023-03-20T00:50:49.756Z,8.80
2023-03-20T00:53:39.603Z,8.80
2023-03-20T00:56:36.495Z,8.80
2023-03-20T00:59:10.515Z,8.80
2023-03-20T01:01:48.060Z,8.80
2023-03-20T01:04:24.121Z,8.80
2023-03-20T01:07:02.598Z,8.80
2023-03-20T01:09:33.084Z,8.80
2023-03-20T01:12:08.031Z,8.80
2023-03-20T01:14:36.907Z,8.80
2023-03-20T01:17:05.654Z,8.80
2023-03-20T01:19:34.431Z,8.80
2023-03-20T01:22:04.567Z,8.70
2023-03-20T01:24:34.749Z,8.80
2023-03-20T01:27:06.996Z,8.80
2023-03-20T01:29:43.722Z,8.80
2023-03-20T01:32:19.742Z,8.80
2023-03-20T01:34:51.449Z,8.80
2023-03-20T01:37:29.121Z,8.80
2023-03-20T01:40:04.364Z,8.70
2023-03-20T01:42:39.362Z,8.80
2023-03-20T01:45:20.536Z,8.70
2023-03-20T01:47:53.001Z,8.70
2023-03-20T01:50:35.550Z,8.70
2023-03-20T01:53:09.562Z,8.70
2023-03-20T01:55:47.756Z,8.70
2023-03-20T01:58:20.286Z,8.70
2023-03-20T02:00:52.415Z,8.70
2023-03-20T02:03:22.362Z,8.70
2023-03-20T02:05:51.832Z,8.70
2023-03-20T02:08:27.831Z,8.70
2023-03-20T02:11:00.636Z,8.60
2023-03-20T02:13:34.069Z,8.60
2023-03-20T02:16:15.435Z,8.60
2023-03-20T02:18:47.505Z,8.60
2023-03-20T02:21:55.865Z,8.60
2023-03-20T02:25:19.642Z,8.60
2023-03-20T02:28:16.334Z,8.60
2023-03-20T02:31:01.326Z,8.50
2023-03-20T02:33:50.983Z,8.60
2023-03-20T02:36:51.152Z,8.60
2023-03-20T02:39:52.699Z,8.50
2023-03-20T02:42:33.777Z,8.50
2023-03-20T02:45:16.723Z,8.50
2023-03-20T02:47:54.477Z,8.50
2023-03-20T02:50:38.592Z,8.50
2023-03-20T02:53:21.186Z,8.50
2023-03-20T02:56:06.328Z,8.50
2023-03-20T02:58:42.097Z,8.50
2023-03-20T03:01:18.391Z,8.50
2023-03-20T03:03:53.935Z,8.50
2023-03-20T03:06:29.870Z,8.50
2023-03-20T03:09:04.089Z,8.40
2023-03-20T03:11:39.865Z,8.40
2023-03-20T03:14:17.009Z,8.50
2023-03-20T03:16:47.828Z,8.40
2023-03-20T03:19:28.482Z,8.40
2023-03-20T03:22:06.939Z,8.40
2023-03-20T03:24:41.574Z,8.40
2023-03-20T03:27:19.863Z,8.40
2023-03-20T03:29:55.171Z,8.40
2023-03-20T03:32:32.126Z,8.40
2023-03-20T03:35:18.017Z,8.30
2023-03-20T03:37:58.389Z,8.30
2023-03-20T03:40:35.545Z,8.30
2023-03-20T03:43:13.788Z,8.30
2023-03-20T03:45:54.096Z,8.20
2023-03-20T03:48:33.297Z,8.20
2023-03-20T03:51:07.208Z,8.10
2023-03-20T03:53:44.835Z,8.10
2023-03-20T03:56:21.228Z,8.10
2023-03-20T03:58:58.036Z,8.00
2023-03-20T04:01:34.349Z,8.00
2023-03-20T04:04:20.601Z,8.00
2023-03-20T04:06:52.720Z,8.00
2023-03-20T04:09:21.764Z,7.90
2023-03-20T04:11:52.793Z,7.90
2023-03-20T04:14:24.772Z,7.90
2023-03-20T04:16:54.938Z,7.90
2023-03-20T04:19:23.680Z,7.90
2023-03-20T04:21:56.029Z,7.90
2023-03-20T04:24:34.647Z,7.90
2023-03-20T04:27:04.724Z,7.80
2023-03-20T04:29:33.573Z,7.80
2023-03-20T04:32:10.189Z,7.80
2023-03-20T04:34:42.566Z,7.80
2023-03-20T04:40:00.294Z,7.70
2023-03-20T04:42:31.097Z,7.70
2023-03-20T04:45:09.310Z,7.70
2023-03-20T04:47:48.580Z,7.70
2023-03-20T04:50:20.480Z,7.60
2023-03-20T04:52:53.919Z,7.60
2023-03-20T04:55:27.647Z,7.60
2023-03-20T04:58:04.331Z,7.60
2023-03-20T05:00:41.215Z,7.60
2023-03-20T05:06:07.655Z,7.60
2023-03-20T05:08:47.952Z,7.60
2023-03-20T05:11:26.627Z,7.60
2023-03-20T05:14:12.296Z,7.60
2023-03-20T05:16:41.672Z,7.50
2023-03-20T05:19:15.164Z,7.50
2023-03-20T05:21:52.834Z,7.60
2023-03-20T05:24:22.353Z,7.60
2023-03-20T05:29:50.034Z,7.60
2023-03-20T05:32:34.252Z,7.60
2023-03-20T05:35:12.935Z,7.60
2023-03-20T05:37:47.983Z,7.60
2023-03-20T05:40:31.945Z,7.60
2023-03-20T05:43:18.193Z,7.60
2023-03-20T05:45:50.128Z,7.60
2023-03-20T05:48:23.089Z,7.60
2023-03-20T05:51:06.235Z,7.50
2023-03-20T05:53:37.842Z,7.60
2023-03-20T05:56:14.767Z,7.60
2023-03-20T05:58:48.633Z,7.50
2023-03-20T06:01:21.900Z,7.50
2023-03-20T06:03:51.798Z,7.50
2023-03-20T06:06:23.452Z,7.50
2023-03-20T06:08:52.605Z,7.50
2023-03-20T06:11:37.352Z,7.50
2023-03-20T06:14:10.920Z,7.50
2023-03-20T06:16:55.415Z,7.60
2023-03-20T06:19:33.892Z,7.60
2023-03-20T06:22:07.182Z,7.70
2023-03-20T06:24:58.335Z,7.70
2023-03-20T06:27:36.216Z,7.80
2023-03-20T06:30:15.044Z,7.80
2023-03-20T06:32:45.260Z,7.70
2023-03-20T06:35:19.635Z,7.80
2023-03-20T06:37:57.646Z,7.80
2023-03-20T06:40:32.468Z,7.70
2023-03-20T06:43:14.090Z,7.80
2023-03-20T06:45:58.302Z,7.80
2023-03-20T06:48:29.699Z,7.80
2023-03-20T06:51:14.399Z,7.80
2023-03-20T06:53:47.136Z,7.80
2023-03-20T06:56:17.314Z,7.80
2023-03-20T06:59:00.583Z,7.80
2023-03-20T07:01:32.903Z,7.90
2023-03-20T07:04:15.020Z,7.90
2023-03-20T07:06:49.284Z,7.90
2023-03-20T07:09:29.054Z,7.90
2023-03-20T07:12:10.327Z,8.00
2023-03-20T07:14:54.800Z,8.00
2023-03-20T07:17:24.076Z,8.00
2023-03-20T07:20:00.196Z,8.10
2023-03-20T07:22:32.980Z,8.30
2023-03-20T07:25:09.093Z,8.30
2023-03-20T07:27:41.215Z,8.30
2023-03-20T07:30:17.337Z,8.30
2023-03-20T07:32:48.733Z,8.30
2023-03-20T07:35:21.698Z,8.30
2023-03-20T07:37:58.146Z,8.40
2023-03-20T07:40:30.142Z,8.40
2023-03-20T07:43:02.387Z,8.40
2023-03-20T07:45:33.503Z,8.40
2023-03-20T07:48:10.323Z,8.50
2023-03-20T07:50:39.440Z,8.50
2023-03-20T07:53:08.812Z,8.50
2023-03-20T07:55:44.625Z,8.50
2023-03-20T07:58:15.806Z,8.50
2023-03-20T08:00:47.864Z,8.50
2023-03-20T08:03:17.521Z,8.60
2023-03-20T08:05:54.286Z,8.60
2023-03-20T08:11:20.556Z,8.60
2023-03-20T08:16:52.049Z,8.60
2023-03-20T08:19:41.005Z,8.60
2023-03-20T08:22:10.378Z,8.60
2023-03-20T08:24:45.274Z,8.60
2023-03-20T08:27:45.368Z,8.70
2023-03-20T08:30:25.290Z,8.70
2023-03-20T08:33:22.916Z,8.70
2023-03-20T08:36:06.331Z,8.70
2023-03-20T08:38:36.146Z,8.70
2023-03-20T08:41:14.216Z,8.70
2023-03-20T08:43:44.487Z,8.70
2023-03-20T08:46:26.261Z,8.70
2023-03-20T08:49:15.432Z,8.80
2023-03-20T08:52:55.307Z,8.80
2023-03-20T08:55:24.187Z,8.90
2023-03-20T08:58:00.480Z,8.90
2023-03-20T09:00:34.961Z,9.00
2023-03-20T09:03:41.899Z,9.10
2023-03-20T09:11:28.113Z,9.10
2023-03-20T09:13:58.155Z,9.20
2023-03-20T09:16:42.800Z,9.20
2023-03-20T09:19:44.119Z,9.30
2023-03-20T09:23:04.856Z,9.40
2023-03-20T09:25:43.797Z,9.50
2023-03-20T09:28:42.246Z,9.60
2023-03-20T09:31:56.755Z,9.60
2023-03-20T09:38:07.678Z,9.80
2023-03-20T09:40:51.725Z,9.90
2023-03-20T09:43:30.142Z,10.10
2023-03-20T09:46:08.547Z,10.20
2023-03-20T09:48:46.265Z,10.40
2023-03-20T09:51:29.677Z,10.50
2023-03-20T09:54:02.576Z,10.60
2023-03-20T09:56:32.250Z,10.60
2023-03-20T09:59:03.482Z,10.50
2023-03-20T10:01:40.950Z,10.60
2023-03-20T10:04:11.640Z,10.40
2023-03-20T10:06:41.931Z,10.40
2023-03-20T10:09:18.386Z,10.40
2023-03-20T10:12:09.975Z,10.40
2023-03-20T10:14:48.017Z,10.40
2023-03-20T10:17:28.237Z,10.60
2023-03-20T10:20:04.259Z,10.50
2023-03-20T10:22:37.274Z,10.50
2023-03-20T10:25:17.798Z,10.50
2023-03-20T10:27:52.013Z,10.40
2023-03-20T10:30:30.119Z,10.40
2023-03-20T10:33:09.173Z,10.30
2023-03-20T10:35:44.941Z,10.20
2023-03-20T10:38:26.645Z,10.30
2023-03-20T10:40:58.107Z,10.20
2023-03-20T10:43:33.275Z,10.30
2023-03-20T10:46:05.793Z,10.40
2023-03-20T10:48:39.020Z,10.40
2023-03-20T10:51:14.804Z,10.40
2023-03-20T10:53:48.453Z,10.50
2023-03-20T10:56:29.111Z,10.70
2023-03-20T10:59:03.213Z,10.80
2023-03-20T11:01:34.400Z,10.80
2023-03-20T11:04:04.337Z,11.00
2023-03-20T11:06:36.618Z,11.00
2023-03-20T11:09:19.637Z,11.10
2023-03-20T11:11:49.131Z,11.30
2023-03-20T11:14:20.643Z,11.40
2023-03-20T11:16:51.524Z,11.40
2023-03-20T11:19:22.086Z,11.50
2023-03-20T11:21:52.712Z,11.40
2023-03-20T11:24:28.956Z,11.30
2023-03-20T11:27:07.365Z,11.30
2023-03-20T11:29:36.574Z,11.20
2023-03-20T11:32:08.456Z,11.10
2023-03-20T11:34:43.206Z,11.10
2023-03-20T11:37:24.926Z,11.00
2023-03-20T11:40:09.195Z,11.10
2023-03-20T11:42:38.327Z,11.10
2023-03-20T11:45:16.692Z,11.10
2023-03-20T11:47:55.636Z,11.10
2023-03-20T11:50:35.655Z,11.20
2023-03-20T11:53:07.110Z,11.10
2023-03-20T11:55:37.554Z,11.20
2023-03-20T11:58:16.655Z,11.20
2023-03-20T12:00:50.062Z,11.10
2023-03-20T12:03:55.881Z,11.10
2023-03-20T12:06:28.045Z,11.00
2023-03-20T12:09:02.229Z,11.10
2023-03-20T12:11:46.659Z,11.20
2023-03-20T12:14:31.137Z,11.20
2023-03-20T12:17:20.853Z,11.10
2023-03-20T12:19:51.840Z,10.90
2023-03-20T12:22:25.871Z,10.70
2023-03-20T12:25:00.038Z,10.60
2023-03-20T12:27:50.749Z,10.60
2023-03-20T12:30:31.069Z,10.70
2023-03-20T12:33:06.076Z,10.70
2023-03-20T12:35:51.003Z,10.70
2023-03-20T12:38:36.467Z,10.90
2023-03-20T12:41:20.962Z,10.80
2023-03-20T12:44:21.800Z,10.80
2023-03-20T12:47:26.523Z,10.80
2023-03-20T12:50:10.034Z,10.70
2023-03-20T12:56:01.607Z,10.40
2023-03-20T12:58:39.873Z,10.50
2023-03-20T13:01:16.059Z,10.60
2023-03-20T13:04:05.062Z,10.60
2023-03-20T13:06:45.219Z,10.70
2023-03-20T13:09:48.109Z,10.70
2023-03-20T13:12:28.965Z,10.70
2023-03-20T13:15:06.267Z,10.70
2023-03-20T13:17:58.842Z,10.70
2023-03-20T13:20:39.515Z,10.70
2023-03-20T13:23:23.828Z,10.70
2023-03-20T13:26:20.519Z,10.60
2023-03-20T13:29:05.643Z,10.50
2023-03-20T13:31:53.738Z,10.50
2023-03-20T13:34:47.775Z,10.40
2023-03-20T13:37:24.733Z,10.50
2023-03-20T13:40:08.629Z,10.40
2023-03-20T13:42:57.975Z,10.30
2023-03-20T13:45:38.634Z,10.30
2023-03-20T13:48:23.206Z,10.30
2023-03-20T13:51:12.442Z,10.30
2023-03-20T13:54:04.313Z,10.20
2023-03-20T13:56:49.858Z,10.20
2023-03-20T13:59:38.416Z,10.20
2023-03-20T14:02:31.171Z,10.10
2023-03-20T14:05:05.803Z,10.10
2023-03-20T14:07:37.549Z,10.10
2023-03-20T14:10:40.785Z,10.10
2023-03-20T14:13:16.150Z,10.10
2023-03-20T14:15:52.288Z,10.20
2023-03-20T14:18:26.596Z,10.20
2023-03-20T14:20:58.017Z,10.20
2023-03-20T14:23:49.202Z,10.20
2023-03-20T14:26:24.168Z,10.30
2023-03-20T14:29:00.040Z,10.30
2023-03-20T14:31:34.383Z,10.30
2023-03-20T14:34:16.235Z,10.20
2023-03-20T14:36:58.759Z,10.10
2023-03-20T14:39:41.840Z,10.20
2023-03-20T14:42:29.238Z,10.20
2023-03-20T14:45:19.196Z,10.10
2023-03-20T14:47:55.009Z,10.20
2023-03-20T14:50:27.265Z,10.20
2023-03-20T14:53:04.363Z,10.10
2023-03-20T14:55:48.681Z,10.00
2023-03-20T14:58:53.482Z,10.00
2023-03-20T15:01:45.130Z,10.00
2023-03-20T15:04:26.509Z,10.00
2023-03-20T15:07:02.420Z,9.90
2023-03-20T15:09:34.019Z,9.80
2023-03-20T15:12:05.610Z,9.80
2023-03-20T15:14:42.451Z,9.70
2023-03-20T15:17:36.464Z,9.70
2023-03-20T15:20:15.209Z,9.60
2023-03-20T15:22:49.838Z,9.50
2023-03-20T15:25:20.955Z,9.50
2023-03-20T15:27:51.983Z,9.40
2023-03-20T15:30:23.159Z,9.40
2023-03-20T15:32:55.420Z,9.40
2023-03-20T15:35:25.370Z,9.40
2023-03-20T15:37:55.145Z,9.40
2023-03-20T15:40:27.066Z,9.40
2023-03-20T15:43:05.136Z,9.40
2023-03-20T15:45:38.194Z,9.30
2023-03-20T15:48:09.054Z,9.40
2023-03-20T15:50:41.319Z,9.30
2023-03-20T15:53:18.262Z,9.30
2023-03-20T15:55:50.965Z,9.30
2023-03-20T15:58:21.454Z,9.40
2023-03-20T16:00:51.201Z,9.40
2023-03-20T16:03:23.309Z,9.40
2023-03-20T16:05:53.150Z,9.30
2023-03-20T16:08:25.728Z,9.30
2023-03-20T16:10:58.327Z,9.30
2023-03-20T16:13:34.977Z,9.30
2023-03-20T16:16:05.802Z,9.30
2023-03-20T16:18:38.492Z,9.30
2023-03-20T16:21:10.033Z,9.30
2023-03-20T16:23:45.768Z,9.20
2023-03-20T16:26:17.515Z,9.20
2023-03-20T16:28:50.510Z,9.20
2023-03-20T16:31:24.138Z,9.10
2023-03-20T16:33:53.526Z,9.10
2023-03-20T16:36:29.788Z,9.10
2023-03-20T16:39:00.251Z,9.10
2023-03-20T16:41:31.962Z,9.10
2023-03-20T16:44:10.909Z,9.10
2023-03-20T16:46:55.576Z,9.00
2023-03-20T16:49:57.533Z,9.00
2023-03-20T16:52:30.064Z,9.00
2023-03-20T16:55:00.119Z,9.00
2023-03-20T16:57:31.020Z,9.00
2023-03-20T17:00:06.566Z,8.90
2023-03-20T17:02:39.898Z,8.90
2023-03-20T17:05:14.440Z,8.90
2023-03-20T17:07:43.962Z,8.90
2023-03-20T17:10:21.611Z,8.90
2023-03-20T17:12:51.414Z,8.90
2023-03-20T17:15:23.928Z,8.90
2023-03-20T17:17:52.811Z,8.90
2023-03-20T17:20:24.351Z,8.90
2023-03-20T17:22:53.485Z,8.90
2023-03-20T17:25:22.745Z,8.90
2023-03-20T17:27:51.465Z,8.80
2023-03-20T17:30:24.117Z,8.80
2023-03-20T17:32:55.436Z,8.80
2023-03-20T17:35:24.069Z,8.80
2023-03-20T17:37:52.793Z,8.90
2023-03-20T17:40:25.271Z,8.90
2023-03-20T17:42:54.093Z,8.80
2023-03-20T17:45:24.800Z,8.80
2023-03-20T17:47:54.252Z,8.80
2023-03-20T17:50:26.978Z,8.80
2023-03-20T17:52:56.027Z,8.80
2023-03-20T17:55:24.596Z,8.80
2023-03-20T17:57:53.932Z,8.80
2023-03-20T18:00:25.883Z,8.80
2023-03-20T18:02:54.573Z,8.80
2023-03-20T18:05:23.363Z,8.80
2023-03-20T18:07:52.004Z,8.80
2023-03-20T18:10:26.357Z,8.80
2023-03-20T18:12:55.057Z,8.80
2023-03-20T18:15:25.188Z,8.80
2023-03-20T18:17:53.861Z,8.80
2023-03-20T18:20:31.213Z,8.80
2023-03-20T18:23:02.874Z,8.80
2023-03-20T18:25:31.947Z,8.80
2023-03-20T18:28:05.053Z,8.80
2023-03-20T18:30:40.039Z,8.80
2023-03-20T18:33:09.618Z,8.80
2023-03-20T18:35:38.798Z,8.80
2023-03-20T18:38:17.157Z,8.80
2023-03-20T18:40:47.348Z,8.80
2023-03-20T18:43:16.243Z,8.80
2023-03-20T18:45:47.137Z,8.80
2023-03-20T18:48:20.392Z,8.90
2023-03-20T18:50:51.171Z,8.90
2023-03-20T18:53:20.304Z,8.90
2023-03-20T18:55:52.311Z,8.80
2023-03-20T18:58:24.855Z,8.90
2023-03-20T19:01:06.952Z,8.90
2023-03-20T19:03:48.515Z,8.90
2023-03-20T19:06:23.885Z,8.90
2023-03-20T19:09:02.288Z,8.90
2023-03-20T19:11:44.918Z,8.90
2023-03-20T19:14:37.629Z,8.90
2023-03-20T19:17:12.977Z,8.90
2023-03-20T19:19:47.855Z,8.90
2023-03-20T19:22:35.081Z,8.90
2023-03-20T19:25:18.257Z,9.00
2023-03-20T19:27:50.448Z,8.90
2023-03-20T19:30:35.376Z,9.00
2023-03-20T19:33:10.452Z,9.00
2023-03-20T19:36:04.875Z,9.00
2023-03-20T19:38:39.810Z,9.00
2023-03-20T19:41:20.737Z,9.00
2023-03-20T19:43:55.303Z,9.00
2023-03-20T19:46:42.413Z,9.00
2023-03-20T19:49:20.483Z,9.00
2023-03-20T19:52:02.723Z,9.00
2023-03-20T19:54:59.935Z,9.00
2023-03-20T19:57:47.996Z,9.00
2023-03-20T20:03:26.459Z,9.00
2023-03-20T20:09:08.224Z,9.00
2023-03-20T20:11:37.128Z,9.00
2023-03-20T20:14:09.636Z,9.10
2023-03-20T20:16:42.594Z,9.10
2023-03-20T20:19:11.738Z,9.10
2023-03-20T20:24:30.909Z,9.10
2023-03-20T20:27:15.777Z,9.10
2023-03-20T20:29:52.601Z,9.10
2023-03-20T20:32:24.926Z,9.10
2023-03-20T20:40:33.668Z,9.20
2023-03-20T20:43:09.812Z,9.20
2023-03-20T20:45:40.226Z,9.20
2023-03-20T20:48:10.387Z,9.20
2023-03-20T20:50:40.812Z,9.20
2023-03-20T20:53:09.528Z,9.20
2023-03-20T20:55:39.762Z,9.20
2023-03-20T20:58:08.608Z,9.20
2023-03-20T21:00:50.588Z,9.20
2023-03-20T21:03:20.706Z,9.20
2023-03-20T21:05:49.339Z,9.30
2023-03-20T21:08:18.999Z,9.30
2023-03-20T21:10:49.412Z,9.30
2023-03-20T21:13:18.002Z,9.30
2023-03-20T21:15:46.948Z,9.30
2023-03-20T21:18:15.838Z,9.30
2023-03-20T21:20:44.584Z,9.40
2023-03-20T21:23:13.281Z,9.40
2023-03-20T21:25:45.600Z,9.40
2023-03-20T21:28:16.961Z,9.40
2023-03-20T21:31:12.412Z,9.40
2023-03-20T21:33:36.913Z,9.40
2023-03-20T21:36:07.227Z,9.40
2023-03-20T21:41:24.870Z,9.50
2023-03-20T21:43:56.143Z,9.50
2023-03-20T21:47:00.113Z,9.50
2023-03-20T21:50:07.817Z,9.50
2023-03-20T21:55:22.314Z,9.50
2023-03-20T22:03:45.286Z,9.50
2023-03-20T22:12:30.389Z,9.50
2023-03-20T22:21:21.760Z,9.50
2023-03-20T22:24:14.889Z,9.50
2023-03-20T22:35:15.286Z,9.50
2023-03-20T22:40:44.441Z,9.50
2023-03-20T22:43:20.831Z,9.50
2023-03-20T22:45:52.725Z,9.50
2023-03-20T22:48:28.678Z,9.50
2023-03-20T22:50:58.812Z,9.50
2023-03-20T22:53:27.426Z,9.50
2023-03-20T22:55:56.206Z,9.50
2023-03-20T22:58:24.971Z,9.50
2023-03-20T23:00:55.144Z,9.50
2023-03-20T23:03:39.883Z,9.50
2023-03-20T23:06:15.609Z,9.50
2023-03-20T23:08:50.775Z,9.50
2023-03-20T23:11:23.440Z,9.50
2023-03-20T23:13:52.813Z,9.50
2023-03-20T23:16:22.256Z,9.50
2023-03-20T23:18:51.118Z,9.50
2023-03-20T23:21:21.233Z,9.50
2023-03-20T23:23:50.447Z,9.50
2023-03-20T23:26:20.991Z,9.50
2023-03-20T23:28:51.537Z,9.50
2023-03-20T23:31:22.895Z,9.60
2023-03-20T23:33:54.203Z,9.60
2023-03-20T23:36:35.766Z,9.60
2023-03-20T23:39:06.410Z,9.60
2023-03-20T23:44:24.591Z,9.60
2023-03-20T23:46:54.771Z,9.60
2023-03-20T23:49:23.772Z,9.60
2023-03-20T23:51:53.825Z,9.60
2023-03-20T23:54:22.615Z,9.60
2023-03-20T23:56:51.230Z,9.60
2023-03-20T23:59:22.117Z,9.60
